Boothville, Louisiana
Current Conditions -  °F | °C
As of 3:57 PM on Thursday 27 Nov 2014 (Local Time) from K1B7 Reporting Station
Clear Clear  
Wind Chill: 57°   Ceiling: Unl
Heat Index: 57°   Visibility: 10mi
Dew Point: 43°   Wind: 13mph
Humidity: 59%   Direction: 40°NE
Pressure: 30.38"   Gusts: NA
Location:  29.34°N, 89.42°W
Report Text: K1B7 272157Z 04011KT 10SM SKC 14/06 A3038 RMK LAST
Loading
Personal Weather Stations






























Interactive Weather Map New forecast layout! Learn more

10-Day Weather Forecast

Advertisements
Track Severe Weather on mobile